Time;durP1;ratioP1;P1;durP2;ratioP2;P2;SDS_P1;SDS_P2;PMS_P1;PMS_P2;Temp;Humidity;BMP_temperature;BMP_pressure;BME280_temperature;BME280_humidity;BME280_pressure;Samples;Min_cycle;Max_cycle;Signal;HPM_P1;HPM_P2
2022/02/18 00:01:06;;;;;;;4.17;1.23;;;;;;;5.46;70.13;97279.16;6201045;28;20240;-72
2022/02/18 00:04:09;;;;;;;5.30;1.93;;;;;;;5.45;70.11;97289.72;6225366;28;20240;-71
2022/02/18 00:07:11;;;;;;;6.50;1.57;;;;;;;5.51;69.76;97294.53;6225555;28;20239;-71
2022/02/18 00:10:14;;;;;;;4.13;1.60;;;;;;;5.54;70.44;97296.94;6201947;28;20251;-71
2022/02/18 00:13:16;;;;;;;8.70;1.60;;;;;;;5.59;69.47;97294.84;6208121;28;20628;-71
2022/02/18 00:16:18;;;;;;;7.97;1.90;;;;;;;5.61;69.83;97300.81;6214128;28;20267;-71
2022/02/18 00:19:20;;;;;;;7.40;2.20;;;;;;;5.56;70.54;97298.53;6223473;28;20263;-72
2022/02/18 00:22:23;;;;;;;10.90;2.43;;;;;;;5.49;71.04;97292.00;6208076;28;20228;-71
2022/02/18 00:25:26;;;;;;;8.30;1.90;;;;;;;5.54;70.26;97295.19;6223744;28;20220;-71
2022/02/18 00:28:31;;;;;;;6.70;1.97;;;;;;;5.59;70.03;97292.22;6224289;28;20307;-71
2022/02/18 00:31:37;;;;;;;8.00;2.00;;;;;;;5.54;70.69;97289.94;6224002;28;20227;-72
2022/02/18 00:34:41;;;;;;;5.93;1.70;;;;;;;5.57;69.85;97294.13;6211045;28;20228;-71
2022/02/18 00:37:44;;;;;;;7.47;1.90;;;;;;;5.53;70.30;97290.88;6225209;28;20251;-72
2022/02/18 00:40:46;;;;;;;6.20;1.87;;;;;;;5.47;70.95;97298.31;6223963;28;20233;-71
2022/02/18 00:43:48;;;;;;;7.20;2.23;;;;;;;5.37;72.20;97307.69;6225397;28;20236;-71
2022/02/18 00:46:52;;;;;;;8.70;2.47;;;;;;;5.34;71.89;97307.88;6227060;28;20227;-72
2022/02/18 00:49:54;;;;;;;8.47;1.77;;;;;;;5.45;71.22;97308.03;6245685;28;20260;-71
2022/02/18 00:52:58;;;;;;;7.03;2.00;;;;;;;5.50;71.37;97309.38;6229893;28;20321;-71
2022/02/18 00:56:00;;;;;;;6.70;2.33;;;;;;;5.43;71.56;97315.97;6229964;28;20233;-71
2022/02/18 00:59:02;;;;;;;9.03;2.57;;;;;;;5.33;72.53;97306.22;6227803;28;20378;-71
2022/02/18 01:02:05;;;;;;;8.30;2.37;;;;;;;5.37;72.33;97312.94;6212413;28;20317;-71
2022/02/18 01:05:08;;;;;;;8.50;2.17;;;;;;;5.46;71.07;97314.94;6227533;28;20234;-72
2022/02/18 01:08:11;;;;;;;12.53;2.57;;;;;;;5.50;71.11;97316.41;6230144;28;20228;-72
2022/02/18 01:11:15;;;;;;;6.77;2.00;;;;;;;5.52;70.78;97309.28;6225717;28;20235;-71
2022/02/18 01:14:17;;;;;;;13.77;3.30;;;;;;;5.53;70.54;97322.28;6211823;28;20237;-71
2022/02/18 01:17:20;;;;;;;13.93;2.90;;;;;;;5.53;70.81;97324.06;6228931;28;20271;-71
2022/02/18 01:20:23;;;;;;;9.73;2.67;;;;;;;5.69;69.95;97329.16;6228048;28;20224;-71
2022/02/18 01:23:25;;;;;;;10.83;2.87;;;;;;;5.84;68.27;97341.19;6229063;28;20296;-72
2022/02/18 01:26:27;;;;;;;10.30;2.80;;;;;;;5.78;68.74;97331.97;6228449;28;20235;-71
2022/02/18 01:29:29;;;;;;;10.67;3.40;;;;;;;5.79;68.68;97340.69;6226460;28;20232;-71
2022/02/18 01:32:32;;;;;;;15.33;3.13;;;;;;;5.79;68.68;97335.44;6216745;28;20229;-72
2022/02/18 01:35:35;;;;;;;10.47;2.93;;;;;;;5.78;68.97;97333.75;6208130;28;20338;-72
2022/02/18 01:38:37;;;;;;;9.03;2.27;;;;;;;5.77;68.10;97351.25;6226145;28;20229;-72
2022/02/18 01:41:41;;;;;;;13.43;2.70;;;;;;;5.73;68.54;97362.84;6216720;28;20286;-71
2022/02/18 01:44:46;;;;;;;10.13;2.47;;;;;;;5.73;69.09;97354.16;6228819;28;20240;-70
2022/02/18 01:47:55;;;;;;;10.73;3.00;;;;;;;5.76;68.98;97362.66;6227353;28;20236;-70
2022/02/18 01:50:58;;;;;;;9.50;2.33;;;;;;;5.77;68.74;97361.72;6226810;28;20709;-70
2022/02/18 01:54:03;;;;;;;10.50;2.57;;;;;;;5.88;67.68;97361.88;6227218;28;20228;-71
2022/02/18 01:57:05;;;;;;;11.10;3.30;;;;;;;5.90;68.33;97359.97;6227290;28;20244;-71
2022/02/18 02:00:12;;;;;;;15.83;2.43;;;;;;;5.96;66.48;97363.16;6226333;28;20363;-71
2022/02/18 02:03:17;;;;;;;13.60;2.67;;;;;;;5.95;67.73;97357.06;6230609;28;20577;-71
2022/02/18 02:06:20;;;;;;;18.57;4.27;;;;;;;5.93;68.27;97377.28;6228571;28;20221;-70
2022/02/18 02:09:23;;;;;;;12.80;3.00;;;;;;;5.94;67.85;97376.34;6225654;28;20673;-71
2022/02/18 02:12:25;;;;;;;7.00;2.30;;;;;;;5.96;68.51;97368.38;6205647;28;20223;-71
2022/02/18 02:15:29;;;;;;;12.60;2.50;;;;;;;5.92;67.74;97380.84;6226494;28;20232;-71
2022/02/18 02:18:31;;;;;;;10.13;2.93;;;;;;;5.95;67.25;97372.78;6228838;28;20298;-70
2022/02/18 02:21:33;;;;;;;8.27;2.37;;;;;;;5.97;66.92;97364.81;6226837;28;20814;-71
2022/02/18 02:24:35;;;;;;;11.17;2.57;;;;;;;6.01;67.03;97363.66;6226121;28;20233;-71
2022/02/18 02:27:39;;;;;;;18.00;2.93;;;;;;;6.07;64.57;97366.72;6209708;28;20593;-70
2022/02/18 02:30:43;;;;;;;13.50;2.67;;;;;;;6.13;64.13;97350.59;6225530;28;20224;-71
2022/02/18 02:33:46;;;;;;;11.43;2.50;;;;;;;6.09;65.64;97371.88;6214056;28;20245;-71
2022/02/18 02:36:50;;;;;;;7.77;2.17;;;;;;;5.99;67.06;97365.56;6207291;28;20708;-71
2022/02/18 02:39:53;;;;;;;13.73;2.37;;;;;;;5.91;67.29;97387.00;6225800;28;20227;-71
2022/02/18 02:43:03;;;;;;;10.07;2.50;;;;;;;5.89;67.23;97383.66;6226501;28;20606;-71
2022/02/18 02:46:05;;;;;;;10.20;2.77;;;;;;;5.83;67.84;97377.03;6225869;28;20260;-71
2022/02/18 02:49:07;;;;;;;8.20;2.33;;;;;;;5.82;69.07;97382.34;6225970;28;20229;-72
2022/02/18 02:52:14;;;;;;;11.33;3.07;;;;;;;5.75;68.84;97376.69;6226823;28;20736;-71
2022/02/18 02:55:26;;;;;;;10.20;2.70;;;;;;;5.74;68.82;97368.94;6225485;28;20241;-72
2022/02/18 02:58:28;;;;;;;10.83;3.07;;;;;;;5.86;65.64;97392.53;6224883;28;20796;-71
2022/02/18 03:01:30;;;;;;;13.63;2.90;;;;;;;5.96;65.21;97374.47;6228601;28;20364;-71
2022/02/18 03:04:33;;;;;;;10.30;2.87;;;;;;;5.99;65.63;97368.19;6210169;28;20709;-71
2022/02/18 03:07:36;;;;;;;10.67;2.73;;;;;;;5.96;65.99;97357.91;6224909;28;20285;-71
2022/02/18 03:11:14;;;;;;;9.07;2.70;;;;;;;5.82;67.12;97356.16;6229550;28;20243;-71
2022/02/18 03:14:11;;;;;;;11.00;2.73;;;;;;;5.66;68.21;97371.22;6224512;28;20764;-71
2022/02/18 03:17:25;;;;;;;10.50;3.10;;;;;;;5.55;68.77;97383.22;6225327;28;20234;-71
2022/02/18 03:20:43;;;;;;;8.43;3.30;;;;;;;5.47;69.33;97382.06;6225506;28;20242;-72
2022/02/18 03:23:48;;;;;;;9.33;2.50;;;;;;;5.52;68.77;97385.19;6228233;28;20680;-71
2022/02/18 03:26:53;;;;;;;7.53;2.20;;;;;;;5.56;68.13;97392.75;6224578;28;20274;-72
2022/02/18 03:29:59;;;;;;;8.57;2.67;;;;;;;5.52;68.52;97380.81;6225439;28;20242;-71
2022/02/18 03:33:17;;;;;;;14.00;2.67;;;;;;;5.44;68.83;97377.84;6224203;28;20237;-71
2022/02/18 03:36:19;;;;;;;10.57;2.67;;;;;;;5.38;69.34;97380.03;6226225;28;20223;-71
2022/02/18 03:39:22;;;;;;;8.67;2.57;;;;;;;5.40;69.28;97385.97;6226629;28;20238;-71
2022/02/18 03:42:24;;;;;;;6.30;1.90;;;;;;;5.35;68.98;97378.44;6224295;28;20234;-71
2022/02/18 03:45:27;;;;;;;9.37;2.13;;;;;;;5.31;69.26;97376.94;6209014;28;20323;-71
2022/02/18 03:48:30;;;;;;;11.67;2.37;;;;;;;5.26;69.06;97373.78;6209445;28;20235;-71
2022/02/18 03:51:33;;;;;;;9.67;2.40;;;;;;;5.20;69.98;97364.56;6224743;28;20702;-71
2022/02/18 03:54:37;;;;;;;8.33;2.23;;;;;;;5.13;70.36;97376.34;6224323;28;20227;-71
2022/02/18 03:57:39;;;;;;;9.50;2.80;;;;;;;5.09;70.97;97374.03;6224213;28;20231;-71
2022/02/18 04:00:41;;;;;;;13.97;3.20;;;;;;;5.12;69.30;97374.66;6223641;28;20751;-71
2022/02/18 04:03:44;;;;;;;10.13;2.47;;;;;;;5.29;68.10;97368.34;6224919;28;20714;-71
2022/02/18 04:07:12;;;;;;;9.23;2.20;;;;;;;5.33;67.84;97364.59;6230752;28;20242;-71
2022/02/18 04:10:20;;;;;;;11.70;2.70;;;;;;;5.30;67.95;97379.66;6222272;28;20327;-71
2022/02/18 04:13:23;;;;;;;12.00;2.43;;;;;;;5.30;68.25;97371.81;6209164;28;20616;-71
2022/02/18 04:16:25;;;;;;;10.30;2.50;;;;;;;5.25;67.71;97368.66;6223580;28;20386;-71
2022/02/18 04:19:34;;;;;;;11.13;3.00;;;;;;;5.29;67.24;97363.13;6209706;28;20227;-71
2022/02/18 04:23:00;;;;;;;9.37;2.33;;;;;;;5.42;66.37;97382.34;6227033;28;20374;-71
2022/02/18 04:26:06;;;;;;;13.17;2.70;;;;;;;5.57;64.58;97372.66;6221334;28;20236;-71
2022/02/18 04:29:09;;;;;;;12.33;2.77;;;;;;;5.65;65.14;97388.69;6227379;28;20639;-71
2022/02/18 04:32:14;;;;;;;10.97;2.40;;;;;;;5.64;65.07;97387.03;6231215;28;20243;-71
2022/02/18 04:35:17;;;;;;;19.83;3.27;;;;;;;5.74;63.10;97380.25;6204546;28;20318;-71
2022/02/18 04:38:19;;;;;;;9.37;2.53;;;;;;;5.80;62.27;97381.59;6221350;28;20229;-71
2022/02/18 04:41:24;;;;;;;9.53;2.47;;;;;;;5.86;62.84;97383.84;6224721;28;20700;-71
2022/02/18 04:44:33;;;;;;;10.73;3.27;;;;;;;5.84;63.38;97386.56;6228777;28;20681;-71
2022/02/18 04:47:36;;;;;;;6.30;2.60;;;;;;;5.80;63.33;97387.69;6229770;28;20581;-71
2022/02/18 04:50:38;;;;;;;12.10;2.70;;;;;;;5.86;62.84;97389.06;6244647;28;20243;-72
2022/02/18 04:54:00;;;;;;;9.80;2.27;;;;;;;5.83;63.62;97390.09;6229818;28;20232;-71
2022/02/18 04:57:02;;;;;;;13.27;3.03;;;;;;;5.82;63.00;97383.19;6227692;28;20652;-71
2022/02/18 05:00:07;;;;;;;15.07;2.77;;;;;;;5.81;63.20;97386.75;6211821;28;20685;-71
2022/02/18 05:03:09;;;;;;;13.70;2.80;;;;;;;5.81;64.44;97399.00;6230090;28;20223;-71
2022/02/18 05:06:12;;;;;;;10.13;2.13;;;;;;;5.81;63.40;97397.22;6229588;28;20678;-70
2022/02/18 05:09:14;;;;;;;13.60;3.20;;;;;;;5.81;63.71;97397.22;6228692;28;20810;-71
2022/02/18 05:12:17;;;;;;;12.07;2.77;;;;;;;5.82;64.03;97398.06;6227430;28;20952;-71
2022/02/18 05:15:19;;;;;;;14.63;3.57;;;;;;;5.78;64.82;97397.44;6227905;28;20727;-71
2022/02/18 05:18:21;;;;;;;7.90;2.53;;;;;;;5.75;65.19;97389.78;6228582;28;20607;-71
2022/02/18 05:21:23;;;;;;;14.50;2.53;;;;;;;5.79;64.68;97374.72;6227857;28;20304;-70
2022/02/18 05:24:25;;;;;;;16.67;3.07;;;;;;;5.74;65.56;97375.00;6226497;28;20701;-71
2022/02/18 05:27:27;;;;;;;11.17;2.43;;;;;;;5.77;65.45;97372.19;6227126;28;20239;-71
2022/02/18 05:30:30;;;;;;;13.33;3.37;;;;;;;5.74;66.39;97374.16;6227364;28;20655;-70
2022/02/18 05:33:32;;;;;;;8.60;2.40;;;;;;;5.65;66.21;97380.84;6220362;28;20233;-70
2022/02/18 05:36:34;;;;;;;7.50;2.00;;;;;;;5.59;66.40;97391.69;6198650;28;20246;-71
2022/02/18 05:39:36;;;;;;;12.27;2.60;;;;;;;5.48;67.43;97381.13;6225682;28;20313;-72
2022/02/18 05:42:38;;;;;;;12.40;2.60;;;;;;;5.39;67.51;97374.66;6207475;28;20258;-70
2022/02/18 05:45:45;;;;;;;16.27;3.43;;;;;;;5.30;68.36;97385.72;6227635;28;20261;-70
2022/02/18 05:48:47;;;;;;;7.73;2.13;;;;;;;5.21;68.67;97391.56;6227454;28;20232;-71
2022/02/18 05:51:49;;;;;;;12.97;3.80;;;;;;;5.18;68.53;97384.75;6229414;28;20437;-71
2022/02/18 05:54:51;;;;;;;13.40;3.33;;;;;;;5.28;67.96;97382.41;6227828;28;20373;-70
2022/02/18 05:57:54;;;;;;;10.67;2.43;;;;;;;5.26;68.72;97375.56;6230348;28;20726;-70
2022/02/18 06:00:56;;;;;;;11.43;2.67;;;;;;;5.30;68.03;97396.19;6228422;28;20317;-70
2022/02/18 06:03:58;;;;;;;13.33;2.73;;;;;;;5.25;68.32;97400.06;6227348;28;20734;-70
2022/02/18 06:07:01;;;;;;;13.57;2.77;;;;;;;5.21;68.94;97412.47;6227863;28;20228;-71
2022/02/18 06:10:04;;;;;;;15.20;3.23;;;;;;;5.24;69.24;97419.31;6223748;28;20231;-71
2022/02/18 06:13:06;;;;;;;10.87;2.60;;;;;;;5.43;68.07;97412.81;6226336;28;20796;-71
2022/02/18 06:16:08;;;;;;;13.63;3.30;;;;;;;5.47;67.53;97388.13;6226724;28;20329;-71
2022/02/18 06:19:10;;;;;;;12.40;2.53;;;;;;;5.47;67.36;97397.75;6227405;28;20707;-70
2022/02/18 06:22:12;;;;;;;10.90;3.37;;;;;;;5.46;67.77;97407.38;6226942;28;20239;-72
2022/02/18 06:25:14;;;;;;;14.10;3.40;;;;;;;5.65;66.93;97393.94;6226895;28;20235;-71
2022/02/18 06:28:17;;;;;;;10.90;2.23;;;;;;;5.66;67.89;97394.78;6226670;28;20239;-72
2022/02/18 06:31:19;;;;;;;11.40;3.20;;;;;;;5.81;66.96;97388.53;6226876;28;20228;-72
2022/02/18 06:34:21;;;;;;;14.07;3.20;;;;;;;5.94;66.87;97392.06;6227967;28;20275;-71
2022/02/18 06:37:23;;;;;;;13.23;3.10;;;;;;;6.20;65.33;97390.31;6226808;28;20723;-71
2022/02/18 06:40:26;;;;;;;15.30;3.27;;;;;;;6.39;65.02;97400.41;6217550;28;20738;-71
2022/02/18 06:43:28;;;;;;;11.80;2.80;;;;;;;6.56;65.08;97410.56;6215287;28;20649;-70
2022/02/18 06:46:30;;;;;;;12.77;3.33;;;;;;;6.68;63.86;97416.75;6194007;28;20601;-70
2022/02/18 06:49:32;;;;;;;9.13;2.93;;;;;;;6.83;63.16;97415.69;6216489;28;20221;-70
2022/02/18 06:52:34;;;;;;;13.37;3.37;;;;;;;6.92;63.52;97420.28;6226662;28;20330;-71
2022/02/18 06:55:36;;;;;;;11.43;3.37;;;;;;;7.05;63.54;97413.25;6208316;28;20258;-71
2022/02/18 06:58:38;;;;;;;10.70;2.30;;;;;;;7.06;63.86;97435.06;6226672;28;20720;-71
2022/02/18 07:01:41;;;;;;;10.17;2.70;;;;;;;7.07;63.93;97440.22;6226759;28;20737;-71
2022/02/18 07:04:43;;;;;;;11.87;2.70;;;;;;;7.06;64.26;97443.78;6225681;28;20254;-71
2022/02/18 07:07:46;;;;;;;12.37;3.10;;;;;;;7.08;64.07;97439.28;6225801;28;20704;-70
2022/02/18 07:10:48;;;;;;;10.70;2.60;;;;;;;7.08;64.19;97438.44;6224333;28;20267;-71
2022/02/18 07:13:50;;;;;;;9.73;2.57;;;;;;;7.13;64.08;97444.19;6227259;28;20282;-70
2022/02/18 07:16:52;;;;;;;13.37;2.87;;;;;;;7.10;64.56;97436.53;6225252;28;20242;-71
2022/02/18 07:19:54;;;;;;;13.57;3.60;;;;;;;7.07;63.80;97445.47;6208710;28;20245;-71
2022/02/18 07:22:56;;;;;;;14.33;3.47;;;;;;;7.09;63.25;97440.94;6224880;28;20328;-70
2022/02/18 07:25:59;;;;;;;12.83;3.27;;;;;;;7.19;62.86;97430.63;6226017;28;20260;-72
2022/02/18 07:29:01;;;;;;;13.27;3.60;;;;;;;7.15;63.52;97427.41;6224861;28;20235;-72
2022/02/18 07:32:04;;;;;;;13.07;2.60;;;;;;;7.09;63.31;97425.19;6218779;28;20242;-72
2022/02/18 07:35:07;;;;;;;10.50;2.90;;;;;;;7.02;64.53;97429.19;6204431;28;20346;-71
2022/02/18 07:38:11;;;;;;;11.37;2.67;;;;;;;6.91;65.06;97434.34;6217120;28;20339;-71
2022/02/18 07:41:13;;;;;;;13.10;3.07;;;;;;;6.88;64.39;97419.69;6209110;28;20738;-71
2022/02/18 07:44:15;;;;;;;14.07;3.30;;;;;;;7.05;63.99;97423.75;6213574;28;20224;-71
2022/02/18 07:47:18;;;;;;;10.77;3.17;;;;;;;7.24;63.32;97426.75;6208502;28;20223;-71
2022/02/18 07:50:25;;;;;;;13.03;3.00;;;;;;;7.45;63.64;97424.38;6224696;28;20230;-71
2022/02/18 07:53:27;;;;;;;12.10;2.80;;;;;;;7.70;62.90;97441.81;6224489;28;20230;-71
2022/02/18 07:56:29;;;;;;;12.40;3.17;;;;;;;7.92;61.55;97430.56;6224875;28;20230;-72
2022/02/18 07:59:35;;;;;;;14.07;3.47;;;;;;;8.07;61.08;97427.69;6225509;28;20232;-71
2022/02/18 08:02:37;;;;;;;13.30;2.97;;;;;;;8.20;61.05;97427.56;6224501;28;20231;-71
2022/02/18 08:05:39;;;;;;;11.17;3.13;;;;;;;8.31;59.29;97432.03;6224042;28;20617;-71
2022/02/18 08:08:45;;;;;;;17.33;3.70;;;;;;;8.40;58.99;97437.47;6225523;28;20291;-71
2022/02/18 08:11:47;;;;;;;8.43;2.40;;;;;;;8.50;58.56;97432.34;6217342;28;20229;-71
2022/02/18 08:14:49;;;;;;;11.57;3.17;;;;;;;8.61;58.96;97436.78;6225362;28;20235;-71
2022/02/18 08:17:51;;;;;;;13.23;3.20;;;;;;;8.67;58.56;97439.81;6224766;28;20595;-71
2022/02/18 08:20:53;;;;;;;13.93;3.47;;;;;;;8.72;58.41;97429.75;6225320;28;20219;-71
2022/02/18 08:23:55;;;;;;;12.23;2.93;;;;;;;8.73;57.48;97444.59;6223569;28;20307;-71
2022/02/18 08:26:58;;;;;;;16.57;3.70;;;;;;;8.82;58.40;97441.25;6226170;28;20238;-71
2022/02/18 08:30:00;;;;;;;7.63;2.70;;;;;;;8.92;58.38;97443.19;6226753;28;20231;-71
2022/02/18 08:33:08;;;;;;;10.20;3.23;;;;;;;8.95;57.80;97433.25;6206422;28;20234;-71
2022/02/18 08:36:13;;;;;;;11.13;3.10;;;;;;;8.98;58.43;97442.72;6225011;28;20278;-71
2022/02/18 08:39:15;;;;;;;9.90;2.90;;;;;;;9.05;57.52;97434.22;6223913;28;20236;-71
2022/02/18 08:42:17;;;;;;;11.23;2.77;;;;;;;9.18;56.96;97445.44;6223481;28;20594;-71
2022/02/18 08:45:19;;;;;;;8.87;2.70;;;;;;;9.28;57.44;97445.59;6223860;28;20591;-71
2022/02/18 08:48:21;;;;;;;9.07;2.73;;;;;;;9.33;57.13;97455.75;6223252;28;25527;-71
2022/02/18 08:51:23;;;;;;;12.37;3.67;;;;;;;9.34;56.78;97447.72;6225337;28;20227;-71
2022/02/18 08:54:25;;;;;;;7.20;2.60;;;;;;;9.38;56.89;97443.06;6223802;28;20360;-71
2022/02/18 08:57:27;;;;;;;5.53;1.93;;;;;;;9.45;56.36;97447.72;6223501;28;20345;-71
2022/02/18 09:00:29;;;;;;;13.17;3.00;;;;;;;9.44;55.98;97448.69;6226150;28;20228;-71
2022/02/18 09:03:31;;;;;;;9.43;2.63;;;;;;;9.55;56.12;97442.56;6224557;28;20307;-71
2022/02/18 09:06:33;;;;;;;11.83;2.90;;;;;;;9.72;56.41;97438.56;6222425;28;20372;-71
2022/02/18 09:09:35;;;;;;;12.10;2.83;;;;;;;9.84;54.83;97427.88;6226775;28;20228;-71
2022/02/18 09:12:39;;;;;;;9.90;3.03;;;;;;;9.85;54.73;97421.63;6189481;28;20246;-71
2022/02/18 09:15:41;;;;;;;10.80;2.80;;;;;;;10.06;54.47;97429.59;6228039;28;20326;-71
2022/02/18 09:18:51;;;;;;;14.03;3.33;;;;;;;10.35;53.51;97427.22;6227598;28;20611;-71
2022/02/18 09:21:53;;;;;;;19.23;3.70;;;;;;;10.66;52.87;97422.84;6229128;28;20227;-71
2022/02/18 09:24:55;;;;;;;9.73;2.67;;;;;;;10.88;52.49;97419.19;6228326;28;20242;-71
2022/02/18 09:28:00;;;;;;;10.20;3.40;;;;;;;11.10;51.53;97424.28;6228697;28;20243;-71
2022/02/18 09:31:01;;;;;;;13.57;3.03;;;;;;;11.22;51.11;97420.59;6243218;28;20243;-71
2022/02/18 09:34:03;;;;;;;9.67;2.83;;;;;;;11.43;50.59;97400.22;6176654;28;20658;-71
2022/02/18 09:37:06;;;;;;;12.43;3.10;;;;;;;11.56;50.65;97397.34;6229563;28;21455;-71
2022/02/18 09:40:09;;;;;;;17.43;3.17;;;;;;;11.79;50.91;97403.22;6224239;28;20324;-71
2022/02/18 09:43:14;;;;;;;11.10;2.77;;;;;;;11.85;49.84;97392.13;6227891;28;20241;-71
2022/02/18 09:46:19;;;;;;;7.13;2.17;;;;;;;12.07;50.71;97405.06;6226721;28;20229;-71
2022/02/18 09:49:23;;;;;;;10.63;3.03;;;;;;;12.11;48.65;97395.88;6230580;28;20288;-71
2022/02/18 09:52:26;;;;;;;10.20;2.60;;;;;;;12.17;47.78;97395.34;6228253;28;20602;-71
2022/02/18 09:55:28;;;;;;;10.97;2.57;;;;;;;12.42;47.94;97385.13;6227079;28;20291;-71
2022/02/18 09:58:30;;;;;;;10.13;2.60;;;;;;;12.65;46.80;97383.00;6228418;28;20617;-72
2022/02/18 10:01:33;;;;;;;11.93;2.93;;;;;;;12.77;46.73;97381.84;6226983;28;20594;-71
2022/02/18 10:04:35;;;;;;;5.97;2.30;;;;;;;13.10;46.51;97385.75;6226318;28;20234;-71
2022/02/18 10:08:01;;;;;;;10.00;2.73;;;;;;;13.57;45.60;97387.38;6227510;28;20238;-71
2022/02/18 10:11:06;;;;;;;7.10;2.47;;;;;;;13.61;44.75;97387.91;6210081;28;20246;-71
2022/02/18 10:14:08;;;;;;;9.83;3.03;;;;;;;13.80;44.93;97387.75;6218428;28;20341;-71
2022/02/18 10:17:11;;;;;;;8.37;2.63;;;;;;;13.81;42.92;97380.66;6223201;28;20236;-71
2022/02/18 10:20:19;;;;;;;9.03;2.60;;;;;;;13.64;43.12;97380.50;6228390;28;20241;-71
2022/02/18 10:23:29;;;;;;;4.33;2.00;;;;;;;13.97;43.36;97378.97;6226918;28;20231;-71
2022/02/18 10:26:43;;;;;;;8.00;2.67;;;;;;;14.47;42.34;97364.34;6226652;28;20227;-71
2022/02/18 10:29:58;;;;;;;8.43;2.47;;;;;;;14.45;41.81;97361.84;6225606;28;20231;-71
2022/02/18 10:33:11;;;;;;;7.73;2.60;;;;;;;14.35;41.37;97374.34;6219736;28;20385;-71
2022/02/18 10:36:15;;;;;;;5.80;2.50;;;;;;;14.21;41.92;97358.94;6213802;28;20251;-71
2022/02/18 10:39:38;;;;;;;8.67;2.03;;;;;;;14.10;42.94;97356.53;6223995;28;20980;-71
2022/02/18 10:42:43;;;;;;;7.77;2.20;;;;;;;14.04;42.44;97342.91;6205625;28;20215;-71
2022/02/18 10:45:55;;;;;;;6.00;1.80;;;;;;;14.36;42.09;97326.41;6226663;28;20280;-71
2022/02/18 10:48:57;;;;;;;6.77;2.17;;;;;;;14.77;41.95;97321.38;6226316;28;20232;-72
2022/02/18 10:52:03;;;;;;;5.57;2.00;;;;;;;15.06;41.22;97302.41;6225718;28;20424;-71
2022/02/18 10:55:07;;;;;;;7.97;2.33;;;;;;;15.07;40.49;97302.22;6225410;28;20228;-71
2022/02/18 10:58:09;;;;;;;6.50;2.30;;;;;;;15.00;39.98;97290.56;6226512;28;20231;-71
2022/02/18 11:01:15;;;;;;;5.73;2.20;;;;;;;14.96;40.51;97283.09;6225528;28;20599;-71
2022/02/18 11:04:27;;;;;;;5.93;1.80;;;;;;;15.23;38.71;97268.72;6227166;28;20231;-71
2022/02/18 11:07:37;;;;;;;6.43;1.80;;;;;;;15.36;39.28;97264.63;6227513;28;20264;-72
2022/02/18 11:10:40;;;;;;;5.17;1.70;;;;;;;15.52;39.65;97255.81;6223170;28;20240;-71
2022/02/18 11:13:44;;;;;;;5.47;2.03;;;;;;;15.49;38.94;97256.97;6227117;28;20767;-71
2022/02/18 11:16:52;;;;;;;4.03;1.50;;;;;;;15.59;39.38;97248.03;6224989;28;20680;-72
2022/02/18 11:19:56;;;;;;;3.20;1.70;;;;;;;15.41;39.52;97243.66;6226656;28;20823;-72
2022/02/18 11:22:58;;;;;;;4.30;1.60;;;;;;;15.13;39.71;97255.56;6224947;28;20775;-71
2022/02/18 11:26:01;;;;;;;6.10;1.50;;;;;;;14.93;41.02;97240.91;6226257;28;20238;-72
2022/02/18 11:29:02;;;;;;;5.00;1.80;;;;;;;14.72;40.84;97233.34;6226017;28;20273;-72
2022/02/18 11:32:27;;;;;;;6.40;1.70;;;;;;;14.59;40.93;97244.41;6226088;28;20268;-72
2022/02/18 11:35:46;;;;;;;4.57;2.10;;;;;;;14.58;40.95;97232.09;6199495;28;20294;-72
2022/02/18 11:39:09;;;;;;;6.10;1.90;;;;;;;14.94;40.39;97219.47;6212552;28;20362;-72
2022/02/18 11:42:39;;;;;;;6.67;2.13;;;;;;;14.98;41.12;97199.53;6215467;28;20228;-72
2022/02/18 11:46:06;;;;;;;4.60;1.53;;;;;;;14.94;40.22;97200.06;6225773;28;20287;-72
2022/02/18 11:49:08;;;;;;;4.97;1.43;;;;;;;14.61;39.63;97197.28;6224184;28;20231;-71
2022/02/18 11:52:16;;;;;;;5.97;1.80;;;;;;;14.51;40.79;97209.84;6225228;28;20231;-71
2022/02/18 11:55:28;;;;;;;4.80;1.63;;;;;;;14.43;42.12;97193.88;6207862;28;20760;-71
2022/02/18 11:58:48;;;;;;;5.77;1.23;;;;;;;14.48;41.09;97196.88;6225770;28;20692;-69
2022/02/18 12:02:05;;;;;;;5.40;1.80;;;;;;;14.54;41.16;97190.94;6225558;28;20220;-70
2022/02/18 12:05:11;;;;;;;4.67;1.43;;;;;;;14.28;41.35;97193.59;6225378;28;20219;-71
2022/02/18 12:08:28;;;;;;;4.37;1.30;;;;;;;14.07;42.33;97190.53;6223553;28;20758;-71
2022/02/18 12:11:41;;;;;;;2.83;1.20;;;;;;;14.03;42.84;97184.69;6208483;28;20232;-70
2022/02/18 12:14:47;;;;;;;7.20;2.00;;;;;;;13.89;43.57;97190.56;6220856;28;20231;-71
2022/02/18 12:18:02;;;;;;;9.87;2.40;;;;;;;13.65;43.93;97204.50;6221519;28;20755;-71
2022/02/18 12:21:07;;;;;;;7.33;2.00;;;;;;;13.26;44.50;97196.03;6223571;28;20501;-72
2022/02/18 12:24:31;;;;;;;4.07;1.70;;;;;;;13.12;46.77;97193.88;6226601;28;20744;-71
2022/02/18 12:27:38;;;;;;;5.20;1.93;;;;;;;13.12;47.25;97201.81;6208112;28;20228;-72
2022/02/18 12:30:41;;;;;;;5.17;2.00;;;;;;;13.08;48.22;97189.84;6224113;28;20239;-70
2022/02/18 12:33:46;;;;;;;4.93;1.50;;;;;;;12.92;47.62;97184.41;6224415;28;20231;-70
2022/02/18 12:36:49;;;;;;;3.03;1.40;;;;;;;12.82;48.84;97175.69;6219674;28;20233;-71
2022/02/18 12:39:54;;;;;;;6.43;1.53;;;;;;;12.82;49.58;97168.56;6209960;28;20310;-70
2022/02/18 12:42:58;;;;;;;3.83;1.10;;;;;;;12.67;50.96;97156.00;6210782;28;20408;-70
2022/02/18 12:46:05;;;;;;;3.53;1.30;;;;;;;12.53;51.51;97157.31;6206189;28;20591;-71
2022/02/18 12:49:07;;;;;;;2.53;1.20;;;;;;;12.45;52.88;97150.13;6207851;28;20239;-71
2022/02/18 12:52:12;;;;;;;1.93;0.97;;;;;;;12.41;54.38;97143.47;6215682;28;20798;-72
2022/02/18 12:55:22;;;;;;;2.43;1.00;;;;;;;12.35;55.71;97145.88;6214609;28;20220;-72
2022/02/18 12:58:25;;;;;;;2.13;0.90;;;;;;;12.26;56.96;97136.16;6225749;28;20250;-72
2022/02/18 13:01:28;;;;;;;4.80;1.37;;;;;;;12.20;58.14;97130.47;6228202;28;20227;-72
2022/02/18 13:04:30;;;;;;;7.30;2.20;;;;;;;11.95;55.23;97111.81;6228506;28;20275;-72
2022/02/18 13:07:35;;;;;;;6.27;1.87;;;;;;;11.72;56.56;97106.00;6228448;28;20250;-72
2022/02/18 13:10:38;;;;;;;7.80;2.13;;;;;;;11.69;56.60;97099.19;6222396;28;20365;-72
2022/02/18 13:13:44;;;;;;;4.37;2.00;;;;;;;11.70;57.62;97092.94;6229181;28;20235;-72
2022/02/18 13:16:48;;;;;;;5.83;1.97;;;;;;;11.65;59.18;97081.97;6228158;28;20260;-72
2022/02/18 13:19:50;;;;;;;8.30;2.07;;;;;;;11.45;58.98;97070.63;6227997;28;20748;-72
2022/02/18 13:23:18;;;;;;;4.70;1.83;;;;;;;11.12;57.63;97059.72;6227911;28;20237;-72
2022/02/18 13:26:25;;;;;;;4.87;1.50;;;;;;;11.05;57.92;97051.53;6206049;28;20242;-72
2022/02/18 13:29:27;;;;;;;3.63;1.20;;;;;;;11.06;57.91;97058.47;6229792;28;20246;-72
2022/02/18 13:32:30;;;;;;;2.53;1.10;;;;;;;11.07;58.44;97057.50;6216170;28;20400;-72
2022/02/18 13:35:37;;;;;;;3.20;1.23;;;;;;;11.08;59.46;97065.25;6218233;28;20229;-72
2022/02/18 13:38:50;;;;;;;6.33;1.60;;;;;;;10.95;59.27;97064.75;6228467;28;20229;-72
2022/02/18 13:41:52;;;;;;;3.63;1.40;;;;;;;10.88;59.69;97060.19;6214046;28;20380;-73
2022/02/18 13:45:01;;;;;;;3.67;1.30;;;;;;;10.90;59.90;97066.13;6229005;28;20320;-71
2022/02/18 13:48:07;;;;;;;5.03;1.50;;;;;;;10.82;60.83;97055.44;6229352;28;20226;-72
2022/02/18 13:51:10;;;;;;;3.90;1.40;;;;;;;10.75;60.44;97051.69;6203689;28;20221;-71
2022/02/18 13:54:12;;;;;;;4.73;1.43;;;;;;;10.73;60.38;97047.38;6217495;28;20224;-71
2022/02/18 13:57:20;;;;;;;3.57;1.40;;;;;;;10.69;61.24;97039.88;6203639;28;20214;-71
2022/02/18 14:00:41;;;;;;;4.20;1.53;;;;;;;10.62;62.87;97028.22;6203434;28;20230;-71
2022/02/18 14:03:59;;;;;;;5.53;1.60;;;;;;;10.50;63.74;97030.16;6204627;28;20226;-71
2022/02/18 14:07:25;;;;;;;4.83;1.50;;;;;;;10.41;65.06;97014.34;6218477;28;20234;-72
2022/02/18 14:11:03;;;;;;;7.97;1.57;;;;;;;10.33;65.74;97007.94;6203570;28;20678;-71
2022/02/18 14:14:17;;;;;;;3.83;1.30;;;;;;;10.11;65.66;97002.06;6210095;28;20315;-70
2022/02/18 14:17:25;;;;;;;6.63;1.63;;;;;;;10.09;66.81;96996.91;6203670;28;20304;-70
2022/02/18 14:20:28;;;;;;;2.43;1.10;;;;;;;10.07;67.92;96996.25;6201702;28;20236;-70
2022/02/18 14:23:34;;;;;;;4.93;1.30;;;;;;;10.03;68.50;96989.56;6203716;28;20263;-71
2022/02/18 14:26:46;;;;;;;8.47;1.20;;;;;;;9.99;68.75;96990.81;6201424;28;20237;-71
2022/02/18 14:30:01;;;;;;;3.93;1.47;;;;;;;9.94;70.20;96974.56;6202773;28;20625;-71
2022/02/18 14:33:23;;;;;;;2.77;1.40;;;;;;;9.86;70.05;96951.53;6217670;28;20731;-71